createdAt,value
2019-06-07T00:02:05.902Z,19.97
2019-06-07T00:04:36.630Z,20.10
2019-06-07T00:07:09.043Z,20.90
2019-06-07T00:09:39.531Z,20.63
2019-06-07T00:12:12.058Z,20.00
2019-06-07T00:14:42.336Z,20.13
2019-06-07T00:17:15.358Z,21.23
2019-06-07T00:19:45.174Z,20.77
2019-06-07T00:22:25.346Z,21.93
2019-06-07T00:24:47.936Z,22.50
2019-06-07T00:27:22.275Z,21.30
2019-06-07T00:29:50.763Z,22.97
2019-06-07T00:32:22.030Z,23.77
2019-06-07T00:34:52.933Z,23.83
2019-06-07T00:37:25.504Z,25.00
2019-06-07T00:40:13.528Z,25.00
2019-06-07T00:42:27.938Z,27.87
2019-06-07T00:44:58.474Z,26.77
2019-06-07T00:47:29.062Z,28.07
2019-06-07T00:49:59.648Z,28.87
2019-06-07T00:55:02.437Z,30.60
2019-06-07T00:57:34.107Z,31.60
2019-06-07T01:00:05.399Z,31.67
2019-06-07T01:02:37.339Z,34.50
2019-06-07T01:05:09.842Z,33.03
2019-06-07T01:07:40.427Z,33.40
2019-06-07T01:10:13.937Z,33.07
2019-06-07T01:12:45.627Z,33.90
2019-06-07T01:15:22.224Z,34.17
2019-06-07T01:18:33.138Z,33.93
2019-06-07T01:20:24.377Z,35.17
2019-06-07T01:22:55.028Z,36.17
2019-06-07T01:25:26.419Z,34.03
2019-06-07T01:27:58.458Z,35.87
2019-06-07T01:30:32.082Z,36.70
2019-06-07T01:33:04.617Z,34.80
2019-06-07T01:35:34.910Z,34.57
2019-06-07T01:38:05.440Z,36.20
2019-06-07T01:40:36.028Z,35.77
2019-06-07T01:43:06.530Z,35.03
2019-06-07T01:45:37.028Z,34.87
2019-06-07T01:48:07.518Z,36.90
2019-06-07T01:50:38.594Z,37.50
2019-06-07T01:53:09.122Z,35.27
2019-06-07T01:55:39.754Z,35.73
2019-06-07T01:58:10.316Z,37.30
2019-06-07T02:00:40.994Z,35.73
2019-06-07T02:03:11.713Z,37.67
2019-06-07T02:05:42.355Z,35.67
2019-06-07T02:08:13.015Z,35.70
2019-06-07T02:10:43.622Z,36.83
2019-06-07T02:13:14.220Z,36.43
2019-06-07T02:15:45.930Z,35.93
2019-06-07T02:18:16.558Z,37.40
2019-06-07T02:20:47.209Z,35.70
2019-06-07T02:23:20.328Z,36.23
2019-06-07T02:25:51.176Z,36.50
2019-06-07T02:28:36.195Z,35.30
2019-06-07T02:30:59.992Z,36.13
2019-06-07T02:33:35.128Z,33.67
2019-06-07T02:36:03.688Z,34.33
2019-06-07T02:38:37.500Z,32.43
2019-06-07T02:41:06.286Z,32.17
2019-06-07T02:43:37.431Z,31.00
2019-06-07T02:46:30.588Z,30.50
2019-06-07T02:48:56.299Z,30.17
2019-06-07T02:51:32.421Z,30.87
2019-06-07T02:53:58.894Z,31.27
2019-06-07T02:56:54.130Z,30.10
2019-06-07T02:59:03.597Z,31.50
2019-06-07T03:01:41.217Z,31.03
2019-06-07T03:04:07.684Z,29.47
2019-06-07T03:06:43.819Z,31.27
2019-06-07T03:09:13.295Z,29.60
2019-06-07T03:11:45.461Z,30.67
2019-06-07T03:14:20.943Z,29.20
2019-06-07T03:17:03.241Z,30.07
2019-06-07T03:19:41.490Z,28.70
2019-06-07T03:22:11.988Z,29.17
2019-06-07T03:24:45.520Z,28.93
2019-06-07T03:27:34.580Z,29.03
2019-06-07T03:29:49.022Z,29.70
2019-06-07T03:32:19.561Z,29.53
2019-06-07T03:34:50.095Z,27.43
2019-06-07T03:37:22.091Z,28.33
2019-06-07T03:39:52.642Z,27.27
2019-06-07T03:42:23.896Z,27.83
2019-06-07T03:44:55.316Z,27.30
2019-06-07T03:47:28.399Z,28.03
2019-06-07T03:49:58.271Z,26.83
2019-06-07T03:52:35.040Z,25.33
2019-06-07T03:55:03.316Z,27.37
2019-06-07T03:58:24.842Z,26.67
2019-06-07T04:00:06.960Z,25.90
2019-06-07T04:02:41.745Z,26.43
2019-06-07T04:05:10.970Z,25.87
2019-06-07T04:07:44.321Z,25.73
2019-06-07T04:10:13.803Z,25.10
2019-06-07T04:12:45.774Z,26.33
2019-06-07T04:15:16.530Z,24.87
2019-06-07T04:18:01.356Z,24.27
2019-06-07T04:20:19.465Z,23.40
2019-06-07T04:22:50.144Z,24.83
2019-06-07T04:25:20.580Z,24.53
2019-06-07T04:27:51.516Z,26.43
2019-06-07T04:30:41.471Z,28.10
2019-06-07T04:33:11.446Z,31.70
2019-06-07T04:35:43.354Z,33.50
2019-06-07T04:38:14.820Z,32.77
2019-06-07T04:40:47.104Z,36.00
2019-06-07T04:43:17.708Z,32.90
2019-06-07T04:45:51.573Z,32.17
2019-06-07T04:48:22.692Z,30.20
2019-06-07T04:50:57.088Z,32.33
2019-06-07T04:53:30.082Z,32.73
2019-06-07T04:56:00.463Z,33.37
2019-06-07T04:58:33.252Z,33.57
2019-06-07T05:01:04.280Z,32.50
2019-06-07T05:03:38.870Z,33.57
2019-06-07T05:06:08.139Z,33.97
2019-06-07T05:08:43.608Z,33.30
2019-06-07T05:11:11.170Z,33.10
2019-06-07T05:13:43.889Z,32.73
2019-06-07T05:16:13.876Z,32.80
2019-06-07T05:18:44.430Z,34.00
2019-06-07T05:21:15.152Z,34.40
2019-06-07T05:24:09.187Z,34.80
2019-06-07T05:26:18.092Z,36.40
2019-06-07T05:28:48.842Z,35.50
2019-06-07T05:31:19.656Z,35.40
2019-06-07T05:33:52.660Z,35.47
2019-06-07T05:36:23.231Z,32.30
2019-06-07T05:38:53.847Z,31.50
2019-06-07T05:41:24.316Z,34.10
2019-06-07T05:44:12.023Z,33.20
2019-06-07T05:46:28.186Z,34.80
2019-06-07T05:48:58.770Z,33.20
2019-06-07T05:51:32.256Z,31.47
2019-06-07T05:54:02.798Z,32.93
2019-06-07T05:56:33.385Z,31.03
2019-06-07T05:59:03.926Z,35.27
2019-06-07T06:01:45.939Z,37.73
2019-06-07T06:04:06.751Z,34.90
2019-06-07T06:06:39.603Z,35.43
2019-06-07T06:09:13.732Z,36.63
2019-06-07T06:11:55.263Z,38.73
2019-06-07T06:14:13.723Z,36.67
2019-06-07T06:16:47.416Z,36.97
2019-06-07T06:19:16.409Z,37.97
2019-06-07T06:21:46.943Z,37.47
2019-06-07T06:24:17.443Z,38.00
2019-06-07T06:26:54.113Z,37.60
2019-06-07T06:29:20.328Z,40.40
2019-06-07T06:32:39.755Z,40.13
2019-06-07T06:34:23.092Z,37.23
2019-06-07T06:36:53.641Z,36.60
2019-06-07T06:39:24.231Z,39.77
2019-06-07T06:42:03.167Z,38.43
2019-06-07T06:44:26.969Z,39.10
2019-06-07T06:46:58.670Z,38.90
2019-06-07T06:49:29.365Z,40.40
2019-06-07T06:52:00.149Z,38.37
2019-06-07T06:54:40.538Z,39.17
2019-06-07T06:57:19.065Z,40.13
2019-06-07T06:59:39.717Z,37.30
2019-06-07T07:02:09.565Z,38.53
2019-06-07T07:04:41.899Z,39.17
2019-06-07T07:07:12.553Z,40.50
2019-06-07T07:09:50.257Z,43.77
2019-06-07T07:12:17.860Z,39.87
2019-06-07T07:14:52.152Z,41.13
2019-06-07T07:17:45.316Z,42.80
2019-06-07T07:19:55.637Z,43.53
2019-06-07T07:22:27.853Z,42.33
2019-06-07T07:24:59.473Z,44.63
2019-06-07T07:27:30.173Z,47.30
2019-06-07T07:30:34.889Z,45.27
2019-06-07T07:32:33.079Z,46.83
2019-06-07T07:35:03.608Z,46.03
2019-06-07T07:37:34.224Z,43.30
2019-06-07T07:40:48.046Z,44.10
2019-06-07T07:42:39.235Z,45.27
2019-06-07T07:45:09.843Z,43.17
2019-06-07T07:48:00.775Z,43.73
2019-06-07T07:50:12.688Z,45.03
2019-06-07T07:52:45.869Z,40.87
2019-06-07T07:55:15.323Z,43.23
2019-06-07T07:57:48.234Z,39.97
2019-06-07T08:00:49.331Z,40.53
2019-06-07T08:02:53.747Z,39.57
2019-06-07T08:05:41.512Z,39.93
2019-06-07T08:07:59.809Z,36.67
2019-06-07T08:10:29.759Z,35.43
2019-06-07T08:13:21.945Z,35.23
2019-06-07T08:15:32.743Z,34.33
2019-06-07T08:18:04.390Z,33.53
2019-06-07T08:20:35.518Z,33.87
2019-06-07T08:23:06.125Z,35.97
2019-06-07T08:25:36.633Z,31.87
2019-06-07T08:28:07.457Z,33.73
2019-06-07T08:31:02.356Z,33.53
2019-06-07T08:33:25.570Z,31.77
2019-06-07T08:36:10.459Z,34.03
2019-06-07T08:38:25.991Z,32.53
2019-06-07T08:40:46.807Z,30.80
2019-06-07T08:43:20.571Z,28.97
2019-06-07T08:45:53.177Z,33.40
2019-06-07T08:48:28.120Z,31.23
2019-06-07T08:50:56.987Z,32.13
2019-06-07T08:53:28.611Z,33.37
2019-06-07T08:56:06.924Z,32.70
2019-06-07T08:58:31.237Z,32.97
2019-06-07T09:01:06.431Z,36.47
2019-06-07T09:03:34.078Z,35.53
2019-06-07T09:06:16.108Z,37.87
2019-06-07T09:08:36.824Z,35.97
2019-06-07T09:11:11.177Z,38.73
2019-06-07T09:13:39.519Z,40.37
2019-06-07T09:16:11.582Z,39.57
2019-06-07T09:18:44.896Z,39.33
2019-06-07T09:21:14.353Z,40.57
2019-06-07T09:23:44.954Z,38.60
2019-06-07T09:26:18.412Z,36.83
2019-06-07T09:28:47.947Z,40.70
2019-06-07T09:31:18.624Z,39.27
2019-06-07T09:33:49.059Z,36.53
2019-06-07T09:36:19.556Z,38.17
2019-06-07T09:38:50.883Z,39.10
2019-06-07T09:41:21.662Z,37.30
2019-06-07T09:44:04.681Z,37.10
2019-06-07T09:46:24.305Z,36.97
2019-06-07T09:49:13.963Z,36.57
2019-06-07T09:51:26.959Z,32.80
2019-06-07T09:53:58.520Z,32.87
2019-06-07T09:56:29.665Z,31.80
2019-06-07T09:59:03.077Z,32.47
2019-06-07T10:01:32.229Z,33.37
2019-06-07T10:04:08.285Z,33.23
2019-06-07T10:06:34.856Z,31.77
2019-06-07T10:11:39.530Z,30.83
2019-06-07T10:14:10.064Z,30.93
2019-06-07T10:16:46.469Z,30.67
2019-06-07T10:19:12.684Z,31.73
2019-06-07T10:21:43.175Z,29.57
2019-06-07T10:24:13.738Z,29.43
2019-06-07T10:26:44.315Z,30.80
2019-06-07T10:29:14.854Z,30.97
2019-06-07T10:31:45.369Z,30.60
2019-06-07T10:34:15.885Z,31.00
2019-06-07T10:36:46.446Z,31.47
2019-06-07T10:39:17.067Z,34.57
2019-06-07T10:41:47.529Z,33.13
2019-06-07T10:44:18.025Z,35.13
2019-06-07T10:46:48.627Z,33.95
2019-06-07T10:49:19.113Z,32.60
2019-06-07T10:51:49.650Z,32.90
2019-06-07T10:54:27.895Z,29.97
2019-06-07T10:56:52.515Z,30.73
2019-06-07T10:59:23.964Z,28.87
2019-06-07T11:01:54.446Z,29.57
2019-06-07T11:04:25.274Z,28.40
2019-06-07T11:06:55.736Z,29.50
2019-06-07T11:09:26.302Z,26.53
2019-06-07T11:11:56.798Z,28.17
2019-06-07T11:14:27.374Z,27.23
2019-06-07T11:16:57.999Z,27.40
2019-06-07T11:19:28.549Z,25.27
2019-06-07T11:21:59.032Z,23.25
2019-06-07T11:24:29.625Z,23.50
2019-06-07T11:27:00.146Z,21.25
2019-06-07T11:29:30.661Z,21.37
2019-06-07T11:32:01.185Z,21.80
2019-06-07T11:34:31.874Z,20.67
2019-06-07T11:37:02.617Z,19.30
2019-06-07T11:39:33.141Z,20.23
2019-06-07T11:42:03.746Z,19.57
2019-06-07T11:44:34.508Z,20.27
2019-06-07T11:47:06.407Z,19.90
2019-06-07T11:49:37.195Z,18.50
2019-06-07T11:52:07.832Z,19.23
2019-06-07T11:54:38.321Z,20.83
2019-06-07T11:57:08.973Z,22.30
2019-06-07T11:59:39.504Z,22.40
2019-06-07T12:02:11.457Z,20.80
2019-06-07T12:04:42.241Z,21.53
2019-06-07T12:07:14.164Z,23.30
2019-06-07T12:09:55.964Z,22.47
2019-06-07T12:12:17.159Z,23.47
2019-06-07T12:14:47.744Z,22.93
2019-06-07T12:17:19.506Z,22.00
2019-06-07T12:19:50.093Z,21.67
2019-06-07T12:22:20.599Z,22.70
2019-06-07T12:24:51.173Z,21.70
2019-06-07T12:27:22.250Z,21.53
2019-06-07T12:29:52.738Z,19.57
2019-06-07T12:32:23.198Z,17.27
2019-06-07T12:34:53.715Z,18.37
2019-06-07T12:37:42.057Z,21.10
2019-06-07T12:39:56.333Z,20.97
2019-06-07T12:42:26.821Z,20.53
2019-06-07T12:44:57.474Z,20.50
2019-06-07T12:47:27.889Z,18.90
2019-06-07T12:49:58.583Z,17.17
2019-06-07T12:52:30.132Z,15.50
2019-06-07T12:55:00.693Z,15.80
2019-06-07T12:57:31.269Z,16.77
2019-06-07T13:00:01.705Z,16.00
2019-06-07T13:02:32.330Z,16.37
2019-06-07T13:05:04.696Z,15.87
2019-06-07T13:07:35.201Z,16.00
2019-06-07T13:10:07.070Z,15.67
2019-06-07T13:12:37.557Z,16.40
2019-06-07T13:15:08.991Z,16.00
2019-06-07T13:17:39.495Z,15.23
2019-06-07T13:20:11.967Z,15.75
2019-06-07T13:22:42.510Z,15.50
2019-06-07T13:25:16.188Z,14.23
2019-06-07T13:27:47.945Z,13.27
2019-06-07T13:30:19.050Z,13.50
2019-06-07T13:32:49.884Z,13.68
2019-06-07T13:35:22.114Z,13.03
2019-06-07T13:37:52.500Z,12.70
2019-06-07T13:40:23.358Z,13.17
2019-06-07T13:42:55.256Z,12.83
2019-06-07T13:45:26.157Z,13.10
2019-06-07T13:47:56.790Z,13.25
2019-06-07T13:50:28.460Z,14.83
2019-06-07T13:52:59.549Z,13.70
2019-06-07T13:55:31.175Z,14.68
2019-06-07T13:58:01.628Z,13.15
2019-06-07T14:00:33.195Z,12.93
2019-06-07T14:03:05.592Z,14.00
2019-06-07T14:05:36.309Z,15.20
2019-06-07T14:08:06.866Z,14.23
2019-06-07T14:10:37.505Z,14.68
2019-06-07T14:13:08.130Z,14.05
2019-06-07T14:15:38.836Z,15.00
2019-06-07T14:18:09.529Z,14.33
2019-06-07T14:20:40.148Z,14.93
2019-06-07T14:23:10.668Z,13.48
2019-06-07T14:25:41.227Z,13.43
2019-06-07T14:28:12.114Z,14.60
2019-06-07T14:30:42.839Z,13.62
2019-06-07T14:33:13.480Z,13.33
2019-06-07T14:35:44.048Z,12.88
2019-06-07T14:38:14.711Z,13.93
2019-06-07T14:40:45.258Z,13.90
2019-06-07T14:43:15.848Z,13.83
2019-06-07T14:45:46.402Z,12.35
2019-06-07T14:48:17.939Z,13.58
2019-06-07T14:50:49.086Z,14.55
2019-06-07T14:53:20.496Z,13.78
2019-06-07T14:55:51.261Z,13.68
2019-06-07T14:58:21.889Z,12.45
2019-06-07T15:00:52.480Z,13.62
2019-06-07T15:03:23.010Z,14.28
2019-06-07T15:05:53.601Z,13.93
2019-06-07T15:08:24.269Z,13.00
2019-06-07T15:10:54.777Z,13.00
2019-06-07T15:13:25.396Z,13.90
2019-06-07T15:15:55.886Z,13.90
2019-06-07T15:18:27.591Z,13.08
2019-06-07T15:20:58.607Z,13.00
2019-06-07T15:23:29.391Z,14.15
2019-06-07T15:25:59.924Z,13.50
2019-06-07T15:28:32.222Z,14.40
2019-06-07T15:31:04.151Z,13.80
2019-06-07T15:33:36.411Z,13.50
2019-06-07T15:36:07.153Z,12.75
2019-06-07T15:38:39.947Z,13.17
2019-06-07T15:41:11.458Z,14.10
2019-06-07T15:43:41.961Z,14.03
2019-06-07T15:46:12.626Z,12.53
2019-06-07T15:48:44.459Z,13.30
2019-06-07T15:51:15.003Z,12.95
2019-06-07T15:53:45.648Z,12.50
2019-06-07T15:56:16.947Z,12.13
2019-06-07T15:58:47.400Z,12.85
2019-06-07T16:01:17.875Z,12.93
2019-06-07T16:03:48.388Z,12.60
2019-06-07T16:06:19.749Z,13.33
2019-06-07T16:08:50.659Z,12.85
2019-06-07T16:11:21.418Z,12.85
2019-06-07T16:13:52.019Z,11.30
2019-06-07T16:16:22.633Z,14.20
2019-06-07T16:18:53.334Z,13.07
2019-06-07T16:21:24.822Z,11.50
2019-06-07T16:23:55.307Z,12.98
2019-06-07T16:26:26.964Z,11.87
2019-06-07T16:28:57.431Z,12.15
2019-06-07T16:31:27.986Z,12.53
2019-06-07T16:33:58.542Z,12.23
2019-06-07T16:36:29.153Z,14.03
2019-06-07T16:38:59.777Z,13.37
2019-06-07T16:41:30.434Z,16.43
2019-06-07T16:44:01.069Z,13.22
2019-06-07T16:46:31.732Z,12.40
2019-06-07T16:49:02.330Z,12.60
2019-06-07T16:51:32.880Z,13.50
2019-06-07T16:54:03.449Z,12.73
2019-06-07T16:56:34.023Z,12.30
2019-06-07T16:59:04.577Z,12.77
2019-06-07T17:01:35.294Z,14.37
2019-06-07T17:04:05.857Z,12.70
2019-06-07T17:06:37.605Z,13.70
2019-06-07T17:09:08.980Z,14.53
2019-06-07T17:11:40.412Z,13.50
2019-06-07T17:14:11.207Z,13.45
2019-06-07T17:16:43.188Z,11.70
2019-06-07T17:19:14.048Z,12.40
2019-06-07T17:21:45.385Z,12.47
2019-06-07T17:24:16.071Z,12.43
2019-06-07T17:26:47.690Z,12.90
2019-06-07T17:29:19.398Z,11.88
2019-06-07T17:31:50.361Z,11.90
2019-06-07T17:34:22.762Z,11.73
2019-06-07T17:36:53.258Z,12.43
2019-06-07T17:39:23.898Z,11.95
2019-06-07T17:42:01.713Z,12.43
2019-06-07T17:44:26.656Z,12.10
2019-06-07T17:46:58.301Z,13.48
2019-06-07T17:49:29.016Z,11.78
2019-06-07T17:51:59.666Z,11.20
2019-06-07T17:54:30.184Z,12.10
2019-06-07T17:57:00.708Z,12.10
2019-06-07T17:59:31.770Z,13.30
2019-06-07T18:02:14.329Z,12.17
2019-06-07T18:04:34.985Z,14.23
2019-06-07T18:07:05.921Z,14.53
2019-06-07T18:09:38.100Z,18.00
2019-06-07T18:12:08.610Z,16.10
2019-06-07T18:14:39.194Z,14.90
2019-06-07T18:17:09.704Z,14.73
2019-06-07T18:19:41.004Z,16.20
2019-06-07T18:22:11.557Z,17.75
2019-06-07T18:24:42.088Z,17.10
2019-06-07T18:27:12.877Z,15.67
2019-06-07T18:29:43.612Z,15.33
2019-06-07T18:32:14.188Z,15.40
2019-06-07T18:34:46.781Z,14.60
2019-06-07T18:37:17.466Z,14.30
2019-06-07T18:39:48.934Z,16.23
2019-06-07T18:42:20.998Z,15.43
2019-06-07T18:44:53.120Z,15.50
2019-06-07T18:47:23.857Z,15.30
2019-06-07T18:49:55.560Z,14.90
2019-06-07T18:52:32.814Z,15.27
2019-06-07T18:55:03.434Z,15.97
2019-06-07T18:57:36.254Z,16.57
2019-06-07T19:00:08.509Z,15.40
2019-06-07T19:02:39.178Z,15.93
2019-06-07T19:05:10.255Z,15.80
2019-06-07T19:07:40.761Z,16.37
2019-06-07T19:10:12.042Z,16.67
2019-06-07T19:12:42.652Z,17.30
2019-06-07T19:15:14.086Z,18.23
2019-06-07T19:17:44.713Z,18.97
2019-06-07T19:20:16.108Z,17.93
2019-06-07T19:22:46.873Z,18.37
2019-06-07T19:25:17.769Z,17.87
2019-06-07T19:27:48.649Z,17.60
2019-06-07T19:30:19.438Z,17.17
2019-06-07T19:32:51.322Z,16.30
2019-06-07T19:35:21.949Z,15.87
2019-06-07T19:37:53.678Z,18.47
2019-06-07T19:40:24.449Z,21.07
2019-06-07T19:42:56.257Z,21.20
2019-06-07T19:45:30.970Z,22.40
2019-06-07T19:48:00.664Z,24.83
2019-06-07T19:50:31.542Z,24.57
2019-06-07T19:53:04.087Z,25.37
2019-06-07T19:55:34.833Z,29.13
2019-06-07T19:58:08.079Z,26.07
2019-06-07T20:00:40.324Z,33.43
2019-06-07T20:03:12.488Z,40.07
2019-06-07T20:05:43.111Z,41.67
2019-06-07T20:08:14.764Z,27.67
2019-06-07T20:10:46.381Z,26.73
2019-06-07T20:13:19.151Z,28.17
2019-06-07T20:15:49.303Z,24.97
2019-06-07T20:18:20.103Z,25.33
2019-06-07T20:20:50.948Z,24.63
2019-06-07T20:23:21.550Z,23.50
2019-06-07T20:25:52.119Z,23.00
2019-06-07T20:28:22.991Z,24.73
2019-06-07T20:30:53.559Z,22.00
2019-06-07T20:33:24.208Z,20.30
2019-06-07T20:35:56.604Z,20.23
2019-06-07T20:38:27.357Z,20.03
2019-06-07T20:40:58.936Z,21.77
2019-06-07T20:43:30.299Z,20.70
2019-06-07T20:46:03.290Z,20.10
2019-06-07T20:48:33.102Z,21.97
2019-06-07T20:51:04.619Z,21.17
2019-06-07T20:53:35.279Z,20.00
2019-06-07T20:56:06.829Z,21.30
2019-06-07T20:58:37.485Z,20.63
2019-06-07T21:01:09.008Z,19.43
2019-06-07T21:03:39.752Z,20.13
2019-06-07T21:06:10.304Z,21.00
2019-06-07T21:08:40.918Z,20.40
2019-06-07T21:11:11.413Z,20.43
2019-06-07T21:13:41.995Z,21.20
2019-06-07T21:16:12.576Z,22.13
2019-06-07T21:18:43.140Z,22.73
2019-06-07T21:21:13.689Z,22.73
2019-06-07T21:23:44.371Z,23.70
2019-06-07T21:26:14.919Z,24.43
2019-06-07T21:28:45.455Z,23.73
2019-06-07T21:31:16.021Z,22.53
2019-06-07T21:33:46.539Z,22.17
2019-06-07T21:36:17.095Z,22.90
2019-06-07T21:38:49.297Z,24.43
2019-06-07T21:41:19.874Z,24.87
2019-06-07T21:43:52.135Z,23.30
2019-06-07T21:46:22.755Z,23.30
2019-06-07T21:48:53.441Z,23.03
2019-06-07T21:51:23.999Z,21.67
2019-06-07T21:53:54.528Z,22.17
2019-06-07T21:56:25.067Z,22.17
2019-06-07T21:58:55.645Z,22.67
2019-06-07T22:01:30.849Z,22.37
2019-06-07T22:04:01.529Z,22.40
2019-06-07T22:06:33.349Z,21.37
2019-06-07T22:09:05.664Z,23.53
2019-06-07T22:11:36.366Z,22.67
2019-06-07T22:14:08.393Z,23.47
2019-06-07T22:16:39.019Z,22.83
2019-06-07T22:19:10.782Z,21.50
2019-06-07T22:21:41.403Z,22.60
2019-06-07T22:24:13.043Z,26.10
2019-06-07T22:26:43.789Z,23.40
2019-06-07T22:29:15.781Z,24.80
2019-06-07T22:31:46.394Z,23.03
2019-06-07T22:34:16.911Z,23.50
2019-06-07T22:36:47.547Z,23.20
2019-06-07T22:39:18.079Z,22.83
2019-06-07T22:41:48.677Z,23.40
2019-06-07T22:44:19.385Z,23.57
2019-06-07T22:46:49.981Z,22.00
2019-06-07T22:49:20.722Z,23.87
2019-06-07T22:51:51.202Z,23.10
2019-06-07T22:54:21.853Z,23.27
2019-06-07T22:56:57.286Z,23.80
2019-06-07T22:59:27.849Z,24.03
2019-06-07T23:01:59.550Z,23.40
2019-06-07T23:04:30.271Z,25.73
2019-06-07T23:07:00.785Z,23.73
2019-06-07T23:09:31.432Z,23.70
2019-06-07T23:12:01.964Z,24.40
2019-06-07T23:14:32.512Z,23.47
2019-06-07T23:17:03.221Z,25.53
2019-06-07T23:19:33.739Z,25.53
2019-06-07T23:22:05.557Z,25.80
2019-06-07T23:24:36.092Z,25.87
2019-06-07T23:27:06.799Z,27.83
2019-06-07T23:29:37.357Z,28.17
2019-06-07T23:32:07.913Z,28.80
2019-06-07T23:34:40.673Z,28.83
2019-06-07T23:37:11.311Z,30.57
2019-06-07T23:39:41.931Z,29.33
2019-06-07T23:42:17.579Z,28.73
2019-06-07T23:44:49.548Z,29.63
2019-06-07T23:47:22.397Z,28.93
2019-06-07T23:49:53.423Z,30.87
2019-06-07T23:52:24.337Z,32.60
2019-06-07T23:54:57.513Z,31.63
2019-06-07T23:57:29.564Z,32.10
